TimeEDT,TemperatureF,Dew PointF,Humidity,Sea Level PressureIn,VisibilityMPH,Wind Direction,Wind SpeedMPH,Gust SpeedMPH,PrecipitationIn,Events,Conditions,WindDirDegrees,DateUTC
12:53 AM,68.0,64.0,87,30.06,10.0,SSW,3.5,-,N/A,,Partly Cloudy,210,2012-11-02 04:53:00
1:53 AM,68.0,64.0,87,30.05,10.0,SW,4.6,-,N/A,,Scattered Clouds,230,2012-11-02 05:53:00
2:53 AM,68.0,64.0,87,30.04,10.0,WSW,4.6,-,N/A,,Partly Cloudy,240,2012-11-02 06:53:00
3:53 AM,69.1,63.0,81,30.03,10.0,WSW,4.6,-,N/A,,Clear,240,2012-11-02 07:53:00
4:53 AM,69.1,64.0,84,30.03,10.0,WSW,4.6,-,N/A,,Clear,250,2012-11-02 08:53:00
5:53 AM,68.0,64.9,90,30.04,10.0,SW,3.5,-,N/A,,Clear,230,2012-11-02 09:53:00
6:53 AM,68.0,64.9,90,30.05,10.0,Calm,Calm,-,N/A,,Scattered Clouds,0,2012-11-02 10:53:00
7:53 AM,68.0,64.9,90,30.06,10.0,WSW,4.6,-,N/A,,Scattered Clouds,250,2012-11-02 11:53:00
8:53 AM,71.1,66.9,87,30.07,10.0,West,4.6,-,N/A,,Scattered Clouds,270,2012-11-02 12:53:00
9:53 AM,75.0,66.9,76,30.09,10.0,Variable,6.9,-,N/A,,Scattered Clouds,0,2012-11-02 13:53:00
10:53 AM,75.9,64.9,69,30.10,10.0,NNW,6.9,-,N/A,,Scattered Clouds,340,2012-11-02 14:53:00
11:53 AM,75.9,64.9,69,30.09,10.0,Variable,4.6,-,N/A,,Scattered Clouds,0,2012-11-02 15:53:00
12:53 PM,78.1,61.0,56,30.07,10.0,North,6.9,-,N/A,,Partly Cloudy,360,2012-11-02 16:53:00
1:53 PM,80.1,59.0,48,30.04,10.0,Variable,3.5,-,N/A,,Partly Cloudy,0,2012-11-02 17:53:00
2:53 PM,81.0,46.9,30,30.03,10.0,WNW,8.1,-,N/A,,Partly Cloudy,290,2012-11-02 18:53:00
3:53 PM,81.0,48.0,31,30.03,10.0,Variable,3.5,-,N/A,,Partly Cloudy,0,2012-11-02 19:53:00
4:53 PM,80.1,48.0,32,30.03,10.0,NNW,6.9,-,N/A,,Partly Cloudy,340,2012-11-02 20:53:00
5:53 PM,79.0,48.0,34,30.04,10.0,NW,4.6,-,N/A,,Scattered Clouds,320,2012-11-02 21:53:00
6:53 PM,77.0,46.9,34,30.04,10.0,NNW,3.5,-,N/A,,Scattered Clouds,340,2012-11-02 22:53:00
7:53 PM,75.9,46.9,36,30.06,10.0,Calm,Calm,-,N/A,,Clear,0,2012-11-02 23:53:00
8:53 PM,73.0,46.0,38,30.07,10.0,North,4.6,-,N/A,,Clear,360,2012-11-03 00:53:00
9:53 PM,71.1,46.0,41,30.08,10.0,Calm,Calm,-,N/A,,Clear,0,2012-11-03 01:53:00
10:53 PM,64.9,48.9,56,30.08,10.0,Calm,Calm,-,N/A,,Clear,0,2012-11-03 02:53:00
11:53 PM,64.9,48.9,56,30.09,10.0,Calm,Calm,-,N/A,,Clear,0,2012-11-03 03:53:00